Carnival Pride — H3VU — position and weather

sailwx.info

Track history (hours):
 
Tides and Currents Weather Stations Pressure Air Temp Water Temp Dewpoint Dewpoint Depression Visibility Wind Speed Wind Dir Waves Ship Positions

Carnival Pride

Operator: Carnival Cruise Lines

Last reported at 2018-Apr-23 08:19 UTC. Time now 2018-Apr-24 01:07 UTC.
Position N 36°43' W 075°42'.

Type: Ship. MMSI: 354215000.

Date/timePositionNaut miles runAvg speedWind from/ knotsBaromVisibWave heightAir tempDewpointWater temp
2018-Apr-23 08:19N 36°43' W 075°42'3 9.7
2018-Apr-23 07:58N 36°46' W 075°44'510.6
2018-Apr-23 07:31N 36°49' W 075°48'510.5
2018-Apr-23 07:00N 36°52' W 075°53'610.6
2018-Apr-23 06:28N 36°56' W 075°59'510.3
2018-Apr-23 06:01N 37°00' W 076°02'816.2
2018-Apr-23 05:29N 37°07' W 076°08'816.9
2018-Apr-23 05:00N 37°15' W 076°08'918.8
2018-Apr-23 04:31N 37°24' W 076°05'3017.8
2018-Apr-23 02:48N 37°55' W 076°10'918.9
2018-Apr-23 02:19N 38°03' W 076°13'2519.1
2018-Apr-23 01:01N 38°27' W 076°22'019.9
2018-Apr-23 01:01N 38°27' W 076°22'918.4
2018-Apr-23 00:31N 38°36' W 076°26'918.8
2018-Apr-23 00:01N 38°45' W 076°26'1019.4
2018-Apr-22 23:31N 38°55' W 076°23'815.8
2018-Apr-22 23:01N 39°03' W 076°23'815.3
2018-Apr-22 22:31N 39°10' W 076°25'612.0
2018-Apr-22 22:00N 39°13' W 076°32'4 7.4
2018-Apr-22 21:30N 39°16' W 076°36'0 0.5
2018-Apr-22 20:59N 39°16' W 076°36'0 0.0
2018-Apr-22 20:29N 39°16' W 076°36'0 0.0
2018-Apr-22 19:59N 39°16' W 076°36'0 0.0
2018-Apr-22 19:29N 39°16' W 076°36'0 0.0
2018-Apr-22 18:59N 39°16' W 076°36'0 0.0
2018-Apr-22 18:29N 39°16' W 076°36'0 0.0
2018-Apr-22 17:59N 39°16' W 076°36'0 0.0
2018-Apr-22 17:29N 39°16' W 076°36'0 0.0
2018-Apr-22 16:59N 39°16' W 076°36'0 0.0
2018-Apr-22 16:29N 39°16' W 076°36'0 0.0
2018-Apr-22 15:59N 39°16' W 076°36'0 0.0
2018-Apr-22 15:29N 39°16' W 076°36'0 0.0
2018-Apr-22 14:59N 39°16' W 076°36'0 0.0
2018-Apr-22 14:28N 39°16' W 076°36'0 0.0
2018-Apr-22 13:58N 39°16' W 076°36'0 0.0
2018-Apr-22 13:28N 39°16' W 076°36'0 0.0
2018-Apr-22 12:58N 39°16' W 076°36'0 0.0
2018-Apr-22 12:28N 39°16' W 076°36'1 2.2
2018-Apr-22 12:00N 39°15' W 076°35'4 8.1
2018-Apr-22 11:30N 39°13' W 076°31'612.1
2018-Apr-22 11:01N 39°09' W 076°25'815.2
2018-Apr-22 10:31N 39°02' W 076°23'816.2
2018-Apr-22 10:00N 38°54' W 076°24'1020.4
2018-Apr-22 09:31N 38°44' W 076°26'9619.6
2018-Apr-22 04:37N 37°09' W 076°09'319.6
2018-Apr-22 04:27N 37°06' W 076°07'817.4
2018-Apr-22 04:00N 36°60' W 076°01'612.1
2018-Apr-22 03:30N 36°56' W 075°55'611.2
2018-Apr-22 03:01N 36°52' W 075°50'611.3
2018-Apr-22 02:30N 36°49' W 075°45'65215.1
2018-Apr-20 07:24N 26°08' W 078°07'  
2018-Apr-16 08:31N 36°47' W 075°45'316.6
2018-Apr-16 08:21N 36°49' W 075°47'515.1
2018-Apr-16 07:59N 36°52' W 075°53'713.9
2018-Apr-16 07:28N 36°57' W 075°60'713.9
2018-Apr-16 06:59N 37°02' W 076°04'5416.4
2018-Apr-16 03:40N 37°57' W 076°10'4018.3
2018-Apr-16 01:28N 38°35' W 076°26'919.2
2018-Apr-16 01:00N 38°44' W 076°26'1019.3
2018-Apr-16 00:30N 38°53' W 076°24'713.8
2018-Apr-16 00:00N 39°00' W 076°23'815.1
2018-Apr-15 23:30N 39°08' W 076°24'612.6
2018-Apr-15 23:00N 39°12' W 076°30'5 9.6
2018-Apr-15 22:31N 39°15' W 076°34'1 2.9
2018-Apr-15 22:01N 39°16' W 076°36'0 0.0
2018-Apr-15 21:30N 39°16' W 076°36'0 0.0
2018-Apr-15 21:00N 39°16' W 076°36'0 0.0
2018-Apr-15 20:30N 39°16' W 076°36'0 0.0
2018-Apr-15 20:00N 39°16' W 076°36'0 0.0
2018-Apr-15 19:30N 39°16' W 076°36'0 0.0
2018-Apr-15 19:00N 39°16' W 076°36'0 0.0
2018-Apr-15 18:30N 39°16' W 076°36'0 0.0
2018-Apr-15 18:00N 39°16' W 076°36'0 0.0
2018-Apr-15 17:30N 39°16' W 076°36'0 0.0
2018-Apr-15 17:00N 39°16' W 076°36'0 0.0
2018-Apr-15 16:30N 39°16' W 076°36'0 0.0
2018-Apr-15 16:00N 39°16' W 076°36'0 0.0
2018-Apr-15 15:30N 39°16' W 076°36'0 0.0
2018-Apr-15 15:00N 39°16' W 076°36'0 0.0
2018-Apr-15 14:30N 39°16' W 076°36'0 0.0
2018-Apr-15 14:00N 39°16' W 076°36'0 0.0
2018-Apr-15 13:30N 39°16' W 076°36'0 0.0
2018-Apr-15 13:00N 39°16' W 076°36'0 0.4
2018-Apr-15 12:30N 39°16' W 076°36'2 4.3
2018-Apr-15 12:00N 39°15' W 076°33'510.2
2018-Apr-15 11:30N 39°11' W 076°28'611.4
2018-Apr-15 11:00N 39°07' W 076°24'612.4
2018-Apr-15 10:30N 39°01' W 076°23'713.9
2018-Apr-15 10:00N 38°54' W 076°24'714.4
2018-Apr-15 09:30N 38°47' W 076°25'3514.8
2018-Apr-15 07:08N 38°13' W 076°15'519.3
2018-Apr-15 06:53N 38°08' W 076°14'919.3
2018-Apr-15 06:24N 37°59' W 076°11'5517.7
2018-Apr-15 03:20N 37°05' W 076°06'618.4
2018-Apr-15 03:00N 36°60' W 076°01'612.4
2018-Apr-15 02:30N 36°56' W 075°56'510.9
2018-Apr-15 02:00N 36°52' W 075°51'  
Track history (hours):
 
Tides and Currents Weather Stations Pressure Air Temp Water Temp Dewpoint Dewpoint Depression Visibility Wind Speed Wind Dir Waves Ship Positions

Carnival Pride

Operator: Carnival Cruise Lines

Last reported at 2018-Apr-23 08:19 UTC. Time now 2018-Apr-24 01:07 UTC.
Position N 36°43' W 075°42'.

Type: Ship. MMSI: 354215000.

Date/timePositionNaut miles runAvg speedWind from/ knotsBaromVisibWave heightAir tempDewpointWater temp
2018-Apr-23 08:19N 36°43' W 075°42'3 9.7
2018-Apr-23 07:58N 36°46' W 075°44'510.6
2018-Apr-23 07:31N 36°49' W 075°48'510.5
2018-Apr-23 07:00N 36°52' W 075°53'610.6
2018-Apr-23 06:28N 36°56' W 075°59'510.3
2018-Apr-23 06:01N 37°00' W 076°02'816.2
2018-Apr-23 05:29N 37°07' W 076°08'816.9
2018-Apr-23 05:00N 37°15' W 076°08'918.8
2018-Apr-23 04:31N 37°24' W 076°05'3017.8
2018-Apr-23 02:48N 37°55' W 076°10'918.9
2018-Apr-23 02:19N 38°03' W 076°13'2519.1
2018-Apr-23 01:01N 38°27' W 076°22'019.9
2018-Apr-23 01:01N 38°27' W 076°22'918.4
2018-Apr-23 00:31N 38°36' W 076°26'918.8
2018-Apr-23 00:01N 38°45' W 076°26'1019.4
2018-Apr-22 23:31N 38°55' W 076°23'815.8
2018-Apr-22 23:01N 39°03' W 076°23'815.3
2018-Apr-22 22:31N 39°10' W 076°25'612.0
2018-Apr-22 22:00N 39°13' W 076°32'4 7.4
2018-Apr-22 21:30N 39°16' W 076°36'0 0.5
2018-Apr-22 20:59N 39°16' W 076°36'0 0.0
2018-Apr-22 20:29N 39°16' W 076°36'0 0.0
2018-Apr-22 19:59N 39°16' W 076°36'0 0.0
2018-Apr-22 19:29N 39°16' W 076°36'0 0.0
2018-Apr-22 18:59N 39°16' W 076°36'0 0.0
2018-Apr-22 18:29N 39°16' W 076°36'0 0.0
2018-Apr-22 17:59N 39°16' W 076°36'0 0.0
2018-Apr-22 17:29N 39°16' W 076°36'0 0.0
2018-Apr-22 16:59N 39°16' W 076°36'0 0.0
2018-Apr-22 16:29N 39°16' W 076°36'0 0.0
2018-Apr-22 15:59N 39°16' W 076°36'0 0.0
2018-Apr-22 15:29N 39°16' W 076°36'0 0.0
2018-Apr-22 14:59N 39°16' W 076°36'0 0.0
2018-Apr-22 14:28N 39°16' W 076°36'0 0.0
2018-Apr-22 13:58N 39°16' W 076°36'0 0.0
2018-Apr-22 13:28N 39°16' W 076°36'0 0.0
2018-Apr-22 12:58N 39°16' W 076°36'0 0.0
2018-Apr-22 12:28N 39°16' W 076°36'1 2.2
2018-Apr-22 12:00N 39°15' W 076°35'4 8.1
2018-Apr-22 11:30N 39°13' W 076°31'612.1
2018-Apr-22 11:01N 39°09' W 076°25'815.2
2018-Apr-22 10:31N 39°02' W 076°23'816.2
2018-Apr-22 10:00N 38°54' W 076°24'1020.4
2018-Apr-22 09:31N 38°44' W 076°26'9619.6
2018-Apr-22 04:37N 37°09' W 076°09'319.6
2018-Apr-22 04:27N 37°06' W 076°07'817.4
2018-Apr-22 04:00N 36°60' W 076°01'612.1
2018-Apr-22 03:30N 36°56' W 075°55'611.2
2018-Apr-22 03:01N 36°52' W 075°50'611.3
2018-Apr-22 02:30N 36°49' W 075°45'65215.1
2018-Apr-20 07:24N 26°08' W 078°07'  
2018-Apr-16 08:31N 36°47' W 075°45'316.6
2018-Apr-16 08:21N 36°49' W 075°47'515.1
2018-Apr-16 07:59N 36°52' W 075°53'713.9
2018-Apr-16 07:28N 36°57' W 075°60'713.9
2018-Apr-16 06:59N 37°02' W 076°04'5416.4
2018-Apr-16 03:40N 37°57' W 076°10'4018.3
2018-Apr-16 01:28N 38°35' W 076°26'919.2
2018-Apr-16 01:00N 38°44' W 076°26'1019.3
2018-Apr-16 00:30N 38°53' W 076°24'713.8
2018-Apr-16 00:00N 39°00' W 076°23'815.1
2018-Apr-15 23:30N 39°08' W 076°24'612.6
2018-Apr-15 23:00N 39°12' W 076°30'5 9.6
2018-Apr-15 22:31N 39°15' W 076°34'1 2.9
2018-Apr-15 22:01N 39°16' W 076°36'0 0.0
2018-Apr-15 21:30N 39°16' W 076°36'0 0.0
2018-Apr-15 21:00N 39°16' W 076°36'0 0.0
2018-Apr-15 20:30N 39°16' W 076°36'0 0.0
2018-Apr-15 20:00N 39°16' W 076°36'0 0.0
2018-Apr-15 19:30N 39°16' W 076°36'0 0.0
2018-Apr-15 19:00N 39°16' W 076°36'0 0.0
2018-Apr-15 18:30N 39°16' W 076°36'0 0.0
2018-Apr-15 18:00N 39°16' W 076°36'0 0.0
2018-Apr-15 17:30N 39°16' W 076°36'0 0.0
2018-Apr-15 17:00N 39°16' W 076°36'0 0.0
2018-Apr-15 16:30N 39°16' W 076°36'0 0.0
2018-Apr-15 16:00N 39°16' W 076°36'0 0.0
2018-Apr-15 15:30N 39°16' W 076°36'0 0.0
2018-Apr-15 15:00N 39°16' W 076°36'0 0.0
2018-Apr-15 14:30N 39°16' W 076°36'0 0.0
2018-Apr-15 14:00N 39°16' W 076°36'0 0.0
2018-Apr-15 13:30N 39°16' W 076°36'0 0.0
2018-Apr-15 13:00N 39°16' W 076°36'0 0.4
2018-Apr-15 12:30N 39°16' W 076°36'2 4.3
2018-Apr-15 12:00N 39°15' W 076°33'510.2
2018-Apr-15 11:30N 39°11' W 076°28'611.4
2018-Apr-15 11:00N 39°07' W 076°24'612.4
2018-Apr-15 10:30N 39°01' W 076°23'713.9
2018-Apr-15 10:00N 38°54' W 076°24'714.4
2018-Apr-15 09:30N 38°47' W 076°25'3514.8
2018-Apr-15 07:08N 38°13' W 076°15'519.3
2018-Apr-15 06:53N 38°08' W 076°14'919.3
2018-Apr-15 06:24N 37°59' W 076°11'5517.7
2018-Apr-15 03:20N 37°05' W 076°06'618.4
2018-Apr-15 03:00N 36°60' W 076°01'612.4
2018-Apr-15 02:30N 36°56' W 075°56'510.9
2018-Apr-15 02:00N 36°52' W 075°51'  

Dump ship's entire track history